createdAt,value
2022-10-11T00:01:28.291Z,21.63
2022-10-11T00:03:55.462Z,21.63
2022-10-11T00:06:22.380Z,21.63
2022-10-11T00:08:49.300Z,21.56
2022-10-11T00:11:16.206Z,21.56
2022-10-11T00:13:43.108Z,21.50
2022-10-11T00:16:10.050Z,21.50
2022-10-11T00:18:36.979Z,21.50
2022-10-11T00:21:03.881Z,21.44
2022-10-11T00:23:30.793Z,21.44
2022-10-11T00:25:57.749Z,21.44
2022-10-11T00:28:24.683Z,21.38
2022-10-11T00:30:51.614Z,21.38
2022-10-11T00:33:18.555Z,21.38
2022-10-11T00:35:45.470Z,21.31
2022-10-11T00:38:12.388Z,21.31
2022-10-11T00:40:39.303Z,21.31
2022-10-11T00:43:06.223Z,21.25
2022-10-11T00:45:33.167Z,21.25
2022-10-11T00:48:00.066Z,21.25
2022-10-11T00:50:26.983Z,21.19
2022-10-11T00:52:53.901Z,21.19
2022-10-11T00:55:20.807Z,21.19
2022-10-11T00:57:47.728Z,21.13
2022-10-11T01:00:14.640Z,21.13
2022-10-11T01:02:41.562Z,21.13
2022-10-11T01:05:28.131Z,21.06
2022-10-11T01:07:55.366Z,21.06
2022-10-11T01:10:22.301Z,21.06
2022-10-11T01:12:49.220Z,21.00
2022-10-11T01:15:16.156Z,21.00
2022-10-11T01:17:43.074Z,21.00
2022-10-11T01:20:09.986Z,21.00
2022-10-11T01:22:36.914Z,21.00
2022-10-11T01:25:03.842Z,20.94
2022-10-11T01:27:30.799Z,20.94
2022-10-11T01:29:57.696Z,20.94
2022-10-11T01:32:24.636Z,20.94
2022-10-11T01:34:51.538Z,20.88
2022-10-11T01:37:18.643Z,20.88
2022-10-11T01:39:45.601Z,20.88
2022-10-11T01:42:12.513Z,20.88
2022-10-11T01:44:39.436Z,20.88
2022-10-11T01:47:06.330Z,20.88
2022-10-11T01:49:33.246Z,20.88
2022-10-11T01:52:00.151Z,20.81
2022-10-11T01:54:39.276Z,20.81
2022-10-11T01:57:14.135Z,20.81
2022-10-11T01:59:41.064Z,20.81
2022-10-11T02:02:08.032Z,20.81
2022-10-11T02:04:34.956Z,20.81
2022-10-11T02:07:01.909Z,20.81
2022-10-11T02:09:28.826Z,20.81
2022-10-11T02:11:55.740Z,20.81
2022-10-11T02:14:22.657Z,20.81
2022-10-11T02:16:49.568Z,20.81
2022-10-11T02:19:16.467Z,20.81
2022-10-11T02:21:43.374Z,20.81
2022-10-11T02:24:10.286Z,20.81
2022-10-11T02:26:37.202Z,20.81
2022-10-11T02:29:04.154Z,20.81
2022-10-11T02:31:31.095Z,20.81
2022-10-11T02:33:58.032Z,20.81
2022-10-11T02:36:24.936Z,20.81
2022-10-11T02:38:51.909Z,20.81
2022-10-11T02:41:18.808Z,20.81
2022-10-11T02:43:45.702Z,20.81
2022-10-11T02:46:12.595Z,20.81
2022-10-11T02:48:39.504Z,20.81
2022-10-11T02:51:06.448Z,20.81
2022-10-11T02:53:33.375Z,20.81
2022-10-11T02:56:00.295Z,20.81
2022-10-11T02:58:27.191Z,20.81
2022-10-11T03:00:54.091Z,20.75
2022-10-11T03:03:21.077Z,20.75
2022-10-11T03:05:48.001Z,20.75
2022-10-11T03:08:14.897Z,20.75
2022-10-11T03:10:41.813Z,20.75
2022-10-11T03:13:08.736Z,20.75
2022-10-11T03:15:35.676Z,20.75
2022-10-11T03:18:02.568Z,20.69
2022-10-11T03:20:29.473Z,20.69
2022-10-11T03:22:56.383Z,20.69
2022-10-11T03:25:23.353Z,20.69
2022-10-11T03:27:50.256Z,20.69
2022-10-11T03:30:18.296Z,20.63
2022-10-11T03:32:45.515Z,20.63
2022-10-11T03:35:12.449Z,20.63
2022-10-11T03:37:39.405Z,20.63
2022-10-11T03:40:06.343Z,20.63
2022-10-11T03:42:33.253Z,20.63
2022-10-11T03:45:00.171Z,20.56
2022-10-11T03:47:27.082Z,20.56
2022-10-11T03:49:54.042Z,20.56
2022-10-11T03:52:20.971Z,20.56
2022-10-11T03:54:48.480Z,20.56
2022-10-11T03:57:15.414Z,20.56
2022-10-11T03:59:42.336Z,20.50
2022-10-11T04:02:09.321Z,20.50
2022-10-11T04:04:36.379Z,20.50
2022-10-11T04:07:03.295Z,20.44
2022-10-11T04:09:30.211Z,20.44
2022-10-11T04:11:57.140Z,20.44
2022-10-11T04:14:24.067Z,20.38
2022-10-11T04:16:50.983Z,20.50
2022-10-11T04:19:17.908Z,20.63
2022-10-11T04:21:44.816Z,20.94
2022-10-11T04:24:11.711Z,22.88
2022-10-11T04:26:38.616Z,24.50
2022-10-11T04:29:05.511Z,25.50
2022-10-11T04:31:32.424Z,25.38
2022-10-11T04:33:59.364Z,25.06
2022-10-11T04:36:26.272Z,25.63
2022-10-11T04:38:53.241Z,26.31
2022-10-11T04:41:20.162Z,26.81
2022-10-11T04:43:47.063Z,27.25
2022-10-11T04:46:13.998Z,27.50
2022-10-11T04:48:40.903Z,27.63
2022-10-11T04:51:07.821Z,27.69
2022-10-11T04:53:34.708Z,27.69
2022-10-11T04:56:01.896Z,27.75
2022-10-11T04:58:29.067Z,27.75
2022-10-11T05:00:56.025Z,27.75
2022-10-11T05:03:22.924Z,27.75
2022-10-11T05:05:49.843Z,27.75
2022-10-11T05:08:16.781Z,27.81
2022-10-11T05:10:43.677Z,27.81
2022-10-11T05:13:10.569Z,27.81
2022-10-11T05:15:37.473Z,27.81
2022-10-11T05:18:04.384Z,27.75
2022-10-11T05:20:31.289Z,27.75
2022-10-11T05:22:58.231Z,27.56
2022-10-11T05:25:25.139Z,27.19
2022-10-11T05:27:52.060Z,26.94
2022-10-11T05:30:18.993Z,26.81
2022-10-11T05:32:45.923Z,26.63
2022-10-11T05:35:12.833Z,26.63
2022-10-11T05:37:39.731Z,26.63
2022-10-11T05:40:06.652Z,26.56
2022-10-11T05:42:33.574Z,26.56
2022-10-11T05:45:00.517Z,26.56
2022-10-11T05:47:27.414Z,26.56
2022-10-11T05:49:54.334Z,26.63
2022-10-11T05:52:21.252Z,26.56
2022-10-11T05:54:48.148Z,26.56
2022-10-11T05:57:15.052Z,26.56
2022-10-11T05:59:41.977Z,26.63
2022-10-11T06:02:08.875Z,26.56
2022-10-11T06:04:35.789Z,26.56
2022-10-11T06:07:02.762Z,26.63
2022-10-11T06:09:29.682Z,26.56
2022-10-11T06:11:56.593Z,26.63
2022-10-11T06:14:23.546Z,26.63
2022-10-11T06:16:50.452Z,26.69
2022-10-11T06:19:17.359Z,26.75
2022-10-11T06:21:44.266Z,26.81
2022-10-11T06:24:11.174Z,26.94
2022-10-11T06:26:38.086Z,27.00
2022-10-11T06:29:05.000Z,27.13
2022-10-11T06:31:31.909Z,27.19
2022-10-11T06:33:58.864Z,27.19
2022-10-11T06:36:25.759Z,27.25
2022-10-11T06:38:52.669Z,27.25
2022-10-11T06:41:19.575Z,27.31
2022-10-11T06:43:46.460Z,27.31
2022-10-11T06:46:13.357Z,27.31
2022-10-11T06:48:40.255Z,27.31
2022-10-11T06:51:07.307Z,27.25
2022-10-11T06:53:36.475Z,27.25
2022-10-11T06:56:03.802Z,27.25
2022-10-11T06:58:30.966Z,27.31
2022-10-11T07:00:57.936Z,27.38
2022-10-11T07:03:24.865Z,27.44
2022-10-11T07:05:51.755Z,27.50
2022-10-11T07:08:18.673Z,27.56
2022-10-11T07:10:45.588Z,27.63
2022-10-11T07:13:16.997Z,27.63
2022-10-11T07:15:44.224Z,27.69
2022-10-11T07:18:11.112Z,27.69
2022-10-11T07:20:38.005Z,27.69
2022-10-11T07:23:04.924Z,27.69
2022-10-11T07:25:31.895Z,27.63
2022-10-11T07:27:58.815Z,27.63
2022-10-11T07:30:25.709Z,27.56
2022-10-11T07:32:52.624Z,27.56
2022-10-11T07:35:19.971Z,27.56
2022-10-11T07:37:46.943Z,27.63
2022-10-11T07:40:13.840Z,27.69
2022-10-11T07:42:40.754Z,27.75
2022-10-11T07:45:07.682Z,27.81
2022-10-11T07:47:34.614Z,27.81
2022-10-11T07:50:01.541Z,27.88
2022-10-11T07:52:28.477Z,27.88
2022-10-11T07:54:55.380Z,27.94
2022-10-11T07:57:22.299Z,27.94
2022-10-11T07:59:50.373Z,27.94
2022-10-11T08:02:17.559Z,27.88
2022-10-11T08:04:44.484Z,27.88
2022-10-11T08:07:11.423Z,27.88
2022-10-11T08:09:38.361Z,27.81
2022-10-11T08:12:05.280Z,27.81
2022-10-11T08:14:32.190Z,27.81
2022-10-11T08:16:59.090Z,27.81
2022-10-11T08:19:25.991Z,27.88
2022-10-11T08:21:52.899Z,27.94
2022-10-11T08:24:19.824Z,28.00
2022-10-11T08:26:46.757Z,28.06
2022-10-11T08:29:13.656Z,28.06
2022-10-11T08:31:40.586Z,28.06
2022-10-11T08:34:07.503Z,28.00
2022-10-11T08:36:34.425Z,27.88
2022-10-11T08:39:01.381Z,27.81
2022-10-11T08:41:28.290Z,27.75
2022-10-11T08:43:55.196Z,27.69
2022-10-11T08:46:22.096Z,27.63
2022-10-11T08:48:49.019Z,27.56
2022-10-11T08:51:15.971Z,27.50
2022-10-11T08:53:42.889Z,27.44
2022-10-11T08:56:09.900Z,27.38
2022-10-11T08:58:36.814Z,27.31
2022-10-11T09:01:03.828Z,27.31
2022-10-11T09:03:30.836Z,27.31
2022-10-11T09:05:57.772Z,27.31
2022-10-11T09:08:24.734Z,27.31
2022-10-11T09:10:51.654Z,27.31
2022-10-11T09:13:18.571Z,27.31
2022-10-11T09:15:45.488Z,27.31
2022-10-11T09:18:12.441Z,27.31
2022-10-11T09:20:39.339Z,27.31
2022-10-11T09:23:06.264Z,27.31
2022-10-11T09:25:33.188Z,27.31
2022-10-11T09:28:02.957Z,27.31
2022-10-11T09:30:30.590Z,27.25
2022-10-11T09:32:57.520Z,27.25
2022-10-11T09:35:24.437Z,27.19
2022-10-11T09:37:51.358Z,27.13
2022-10-11T09:40:18.373Z,27.13
2022-10-11T09:42:45.380Z,27.06
2022-10-11T09:45:12.287Z,27.00
2022-10-11T09:47:39.203Z,26.94
2022-10-11T09:50:06.112Z,26.94
2022-10-11T09:52:33.025Z,26.94
2022-10-11T09:54:59.928Z,26.94
2022-10-11T09:57:26.855Z,26.94
2022-10-11T09:59:53.791Z,27.00
2022-10-11T10:02:20.717Z,27.00
2022-10-11T10:04:48.799Z,27.06
2022-10-11T10:07:15.719Z,27.06
2022-10-11T10:09:42.611Z,27.06
2022-10-11T10:12:09.538Z,27.06
2022-10-11T10:14:36.451Z,27.06
2022-10-11T10:17:03.347Z,27.06
2022-10-11T10:19:30.258Z,27.06
2022-10-11T10:21:57.186Z,27.06
2022-10-11T10:24:24.096Z,27.00
2022-10-11T10:26:50.995Z,27.00
2022-10-11T10:29:17.909Z,26.94
2022-10-11T10:32:09.283Z,26.94
2022-10-11T10:34:31.711Z,26.88
2022-10-11T10:36:58.651Z,26.81
2022-10-11T10:39:25.570Z,26.81
2022-10-11T10:41:52.491Z,26.81
2022-10-11T10:44:19.400Z,26.81
2022-10-11T10:46:46.355Z,26.88
2022-10-11T10:52:00.157Z,26.94
2022-10-11T10:54:27.105Z,26.94
2022-10-11T10:56:54.014Z,27.00
2022-10-11T10:59:20.921Z,27.00
2022-10-11T11:01:47.878Z,27.06
2022-10-11T11:04:14.833Z,27.06
2022-10-11T11:06:41.769Z,27.00
2022-10-11T11:09:08.693Z,27.00
2022-10-11T11:11:35.591Z,27.00
2022-10-11T11:14:02.501Z,27.00
2022-10-11T11:16:29.423Z,26.94
2022-10-11T11:18:56.318Z,26.94
2022-10-11T11:21:23.216Z,26.88
2022-10-11T11:23:50.128Z,26.88
2022-10-11T11:26:17.077Z,26.81
2022-10-11T11:28:44.077Z,26.81
2022-10-11T11:31:11.016Z,26.75
2022-10-11T11:33:37.964Z,26.81
2022-10-11T11:36:05.122Z,26.81
2022-10-11T11:38:32.315Z,26.88
2022-10-11T11:40:59.228Z,26.94
2022-10-11T11:43:26.144Z,26.94
2022-10-11T11:45:53.052Z,27.00
2022-10-11T11:48:19.955Z,27.00
2022-10-11T11:50:46.863Z,27.00
2022-10-11T11:53:13.806Z,27.06
2022-10-11T11:55:40.736Z,27.06
2022-10-11T11:58:07.660Z,27.06
2022-10-11T12:00:34.600Z,27.00
2022-10-11T12:03:01.515Z,27.00
2022-10-11T12:05:28.448Z,27.00
2022-10-11T12:07:55.344Z,26.94
2022-10-11T12:10:22.247Z,26.94
2022-10-11T12:12:49.177Z,26.88
2022-10-11T12:15:16.129Z,26.88
2022-10-11T12:17:43.035Z,26.81
2022-10-11T12:20:10.052Z,26.75
2022-10-11T12:22:37.021Z,26.75
2022-10-11T12:25:03.915Z,26.81
2022-10-11T12:27:30.848Z,26.88
2022-10-11T12:29:57.752Z,26.88
2022-10-11T12:32:24.668Z,26.88
2022-10-11T12:34:51.579Z,26.94
2022-10-11T12:37:18.495Z,26.94
2022-10-11T12:39:45.399Z,27.00
2022-10-11T12:42:12.327Z,27.00
2022-10-11T12:44:39.239Z,27.00
2022-10-11T12:47:06.143Z,27.00
2022-10-11T12:49:33.050Z,27.00
2022-10-11T12:51:59.947Z,27.00
2022-10-11T12:54:30.004Z,27.00
2022-10-11T12:57:00.145Z,26.94
2022-10-11T12:59:27.066Z,26.88
2022-10-11T13:01:53.980Z,26.81
2022-10-11T13:04:20.904Z,26.75
2022-10-11T13:06:47.824Z,26.63
2022-10-11T13:09:14.766Z,26.56
2022-10-11T13:11:41.680Z,26.50
2022-10-11T13:14:08.597Z,26.38
2022-10-11T13:16:35.530Z,26.31
2022-10-11T13:19:02.449Z,26.19
2022-10-11T13:21:29.419Z,26.13
2022-10-11T13:23:56.352Z,26.00
2022-10-11T13:26:23.287Z,25.94
2022-10-11T13:28:50.258Z,25.88
2022-10-11T13:31:17.372Z,25.81
2022-10-11T13:33:44.316Z,25.75
2022-10-11T13:36:11.233Z,25.69
2022-10-11T13:38:38.164Z,25.63
2022-10-11T13:41:05.106Z,25.56
2022-10-11T13:43:32.031Z,25.50
2022-10-11T13:45:58.956Z,25.38
2022-10-11T13:48:30.741Z,25.31
2022-10-11T13:50:58.741Z,25.25
2022-10-11T13:53:25.667Z,25.19
2022-10-11T13:55:52.567Z,25.13
2022-10-11T13:58:19.490Z,25.06
2022-10-11T14:00:46.425Z,25.00
2022-10-11T14:03:13.357Z,24.88
2022-10-11T14:05:40.283Z,24.81
2022-10-11T14:08:07.203Z,24.75
2022-10-11T14:10:34.114Z,24.75
2022-10-11T14:13:01.008Z,24.69
2022-10-11T14:15:27.927Z,24.63
2022-10-11T14:17:54.851Z,24.56
2022-10-11T14:20:21.777Z,24.50
2022-10-11T14:22:48.723Z,24.44
2022-10-11T14:25:15.640Z,24.38
2022-10-11T14:27:42.567Z,24.31
2022-10-11T14:30:26.502Z,24.31
2022-10-11T14:32:54.106Z,24.25
2022-10-11T14:35:21.019Z,24.19
2022-10-11T14:37:47.949Z,24.19
2022-10-11T14:40:14.846Z,24.13
2022-10-11T14:42:41.757Z,24.13
2022-10-11T14:45:08.664Z,24.13
2022-10-11T14:47:39.324Z,24.06
2022-10-11T14:50:08.928Z,24.06
2022-10-11T14:52:35.853Z,24.06
2022-10-11T14:55:02.813Z,24.06
2022-10-11T14:57:29.706Z,24.06
2022-10-11T14:59:56.640Z,24.00
2022-10-11T15:02:23.531Z,24.00
2022-10-11T15:04:50.458Z,23.94
2022-10-11T15:07:17.400Z,23.94
2022-10-11T15:09:44.312Z,23.88
2022-10-11T15:12:11.231Z,23.81
2022-10-11T15:14:38.150Z,23.75
2022-10-11T15:17:05.056Z,23.69
2022-10-11T15:19:31.990Z,23.63
2022-10-11T15:21:58.895Z,23.56
2022-10-11T15:24:25.787Z,23.50
2022-10-11T15:26:52.691Z,23.44
2022-10-11T15:29:19.611Z,23.38
2022-10-11T15:31:46.509Z,23.31
2022-10-11T15:34:13.467Z,23.25
2022-10-11T15:36:40.413Z,23.19
2022-10-11T15:39:07.337Z,23.13
2022-10-11T15:41:34.291Z,23.13
2022-10-11T15:44:01.194Z,23.06
2022-10-11T15:46:28.125Z,23.00
2022-10-11T15:48:55.043Z,22.94
2022-10-11T15:51:21.960Z,22.88
2022-10-11T15:53:49.376Z,22.88
2022-10-11T15:56:16.316Z,22.81
2022-10-11T15:58:43.255Z,22.75
2022-10-11T16:01:10.215Z,22.75
2022-10-11T16:03:37.110Z,22.69
2022-10-11T16:06:05.596Z,22.63
2022-10-11T16:08:32.709Z,22.56
2022-10-11T16:10:59.614Z,22.56
2022-10-11T16:13:26.544Z,22.50
2022-10-11T16:15:53.469Z,22.44
2022-10-11T16:18:20.389Z,22.44
2022-10-11T16:20:47.311Z,22.38
2022-10-11T16:23:14.211Z,22.38
2022-10-11T16:25:41.153Z,22.31
2022-10-11T16:28:08.183Z,22.25
2022-10-11T16:30:35.149Z,22.25
2022-10-11T16:33:02.096Z,22.19
2022-10-11T16:35:32.366Z,22.19
2022-10-11T16:37:59.627Z,22.13
2022-10-11T16:40:26.527Z,22.13
2022-10-11T16:42:53.472Z,22.06
2022-10-11T16:45:20.362Z,22.06
2022-10-11T16:47:47.279Z,22.06
2022-10-11T16:50:14.180Z,22.00
2022-10-11T16:52:41.148Z,22.00
2022-10-11T16:55:08.078Z,21.94
2022-10-11T16:57:34.988Z,21.94
2022-10-11T17:00:01.918Z,21.94
2022-10-11T17:02:32.263Z,21.88
2022-10-11T17:04:59.563Z,21.88
2022-10-11T17:07:26.472Z,21.88
2022-10-11T17:09:53.382Z,21.81
2022-10-11T17:12:20.281Z,21.81
2022-10-11T17:14:47.167Z,21.81
2022-10-11T17:17:14.118Z,21.88
2022-10-11T17:19:44.892Z,21.94
2022-10-11T17:22:12.142Z,21.94
2022-10-11T17:24:39.063Z,21.94
2022-10-11T17:27:06.089Z,21.94
2022-10-11T17:29:33.006Z,22.00
2022-10-11T17:31:59.915Z,23.31
2022-10-11T17:34:26.815Z,24.88
2022-10-11T17:36:53.722Z,26.00
2022-10-11T17:39:20.640Z,26.81
2022-10-11T17:41:47.545Z,27.19
2022-10-11T17:44:14.458Z,27.44
2022-10-11T17:46:41.396Z,27.63
2022-10-11T17:49:08.287Z,27.50
2022-10-11T17:51:35.205Z,27.06
2022-10-11T17:54:02.156Z,26.88
2022-10-11T17:56:32.547Z,26.75
2022-10-11T17:59:02.093Z,26.75
2022-10-11T18:01:29.071Z,26.69
2022-10-11T18:03:56.019Z,26.69
2022-10-11T18:06:22.916Z,26.69
2022-10-11T18:08:49.835Z,26.69
2022-10-11T18:11:16.727Z,26.69
2022-10-11T18:13:43.654Z,26.69
2022-10-11T18:16:11.358Z,26.69
2022-10-11T18:18:38.608Z,26.69
2022-10-11T18:21:05.509Z,26.63
2022-10-11T18:23:32.414Z,26.63
2022-10-11T18:25:59.348Z,26.56
2022-10-11T18:28:26.295Z,26.50
2022-10-11T18:30:53.247Z,26.50
2022-10-11T18:33:20.210Z,26.50
2022-10-11T18:35:47.122Z,26.50
2022-10-11T18:38:14.101Z,26.38
2022-10-11T18:40:46.175Z,26.38
2022-10-11T18:43:14.009Z,26.50
2022-10-11T18:45:40.926Z,26.56
2022-10-11T18:48:07.828Z,26.63
2022-10-11T18:50:34.759Z,26.69
2022-10-11T18:53:01.794Z,26.81
2022-10-11T18:55:28.767Z,26.88
2022-10-11T18:57:55.659Z,26.94
2022-10-11T19:00:40.280Z,26.94
2022-10-11T19:03:08.190Z,26.94
2022-10-11T19:05:35.179Z,26.88
2022-10-11T19:08:02.095Z,26.81
2022-10-11T19:10:29.045Z,26.75
2022-10-11T19:12:55.996Z,26.69
2022-10-11T19:15:27.801Z,26.63
2022-10-11T19:17:55.507Z,26.50
2022-10-11T19:20:22.501Z,26.44
2022-10-11T19:22:49.437Z,26.38
2022-10-11T19:25:16.436Z,26.31
2022-10-11T19:27:43.364Z,26.25
2022-10-11T19:30:10.277Z,26.25
2022-10-11T19:32:37.184Z,26.19
2022-10-11T19:35:04.118Z,26.13
2022-10-11T19:37:31.296Z,26.00
2022-10-11T19:39:58.406Z,25.88
2022-10-11T19:42:25.307Z,25.69
2022-10-11T19:44:52.231Z,25.50
2022-10-11T19:47:19.132Z,25.25
2022-10-11T19:49:46.064Z,25.06
2022-10-11T19:52:13.000Z,24.88
2022-10-11T19:54:39.933Z,24.69
2022-10-11T19:57:06.839Z,24.56
2022-10-11T19:59:33.737Z,24.44
2022-10-11T20:02:00.651Z,24.31
2022-10-11T20:04:51.604Z,24.25
2022-10-11T20:07:14.495Z,24.13
2022-10-11T20:09:41.379Z,24.06
2022-10-11T20:12:08.272Z,24.00
2022-10-11T20:14:35.435Z,23.88
2022-10-11T20:17:02.362Z,23.81
2022-10-11T20:19:31.154Z,23.75
2022-10-11T20:21:58.616Z,23.69
2022-10-11T20:24:25.558Z,23.63
2022-10-11T20:26:52.479Z,23.56
2022-10-11T20:29:19.462Z,23.50
2022-10-11T20:31:46.389Z,23.44
2022-10-11T20:34:13.284Z,23.38
2022-10-11T20:36:40.195Z,23.31
2022-10-11T20:39:07.156Z,23.25
2022-10-11T20:41:34.076Z,23.25
2022-10-11T20:44:01.052Z,23.19
2022-10-11T20:46:27.980Z,23.19
2022-10-11T20:49:00.433Z,23.13
2022-10-11T20:51:28.464Z,23.13
2022-10-11T20:53:55.375Z,23.06
2022-10-11T20:56:22.289Z,23.06
2022-10-11T20:58:49.183Z,23.00
2022-10-11T21:01:16.133Z,23.00
2022-10-11T21:03:43.061Z,23.00
2022-10-11T21:06:09.986Z,22.94
2022-10-11T21:08:36.938Z,22.94
2022-10-11T21:11:03.834Z,22.88
2022-10-11T21:13:30.747Z,22.88
2022-10-11T21:15:57.678Z,22.88
2022-10-11T21:18:24.592Z,22.81
2022-10-11T21:20:51.493Z,22.81
2022-10-11T21:23:18.387Z,22.81
2022-10-11T21:25:45.313Z,22.81
2022-10-11T21:28:12.250Z,22.75
2022-10-11T21:30:39.184Z,22.75
2022-10-11T21:33:06.105Z,22.75
2022-10-11T21:35:33.012Z,22.75
2022-10-11T21:37:59.937Z,22.75
2022-10-11T21:40:26.839Z,22.75
2022-10-11T21:42:53.735Z,22.75
2022-10-11T21:45:21.132Z,22.75
2022-10-11T21:47:48.040Z,22.81
2022-10-11T21:50:14.936Z,22.81
2022-10-11T21:52:41.844Z,22.75
2022-10-11T21:55:08.766Z,22.75
2022-10-11T21:57:35.676Z,22.75
2022-10-11T22:00:02.596Z,22.75
2022-10-11T22:02:29.502Z,22.69
2022-10-11T22:04:56.407Z,22.69
2022-10-11T22:07:23.382Z,22.69
2022-10-11T22:09:50.298Z,22.63
2022-10-11T22:12:17.194Z,22.63
2022-10-11T22:14:44.120Z,22.56
2022-10-11T22:17:11.034Z,22.56
2022-10-11T22:19:37.971Z,22.56
2022-10-11T22:22:04.883Z,22.50
2022-10-11T22:24:31.794Z,22.50
2022-10-11T22:26:58.695Z,22.44
2022-10-11T22:29:26.891Z,22.44
2022-10-11T22:31:55.451Z,22.38
2022-10-11T22:34:22.369Z,22.38
2022-10-11T22:36:49.277Z,22.31
2022-10-11T22:39:16.199Z,22.31
2022-10-11T22:41:43.088Z,22.25
2022-10-11T22:44:10.031Z,22.25
2022-10-11T22:46:36.954Z,22.25
2022-10-11T22:49:03.858Z,22.19
2022-10-11T22:51:30.788Z,22.19
2022-10-11T22:53:57.715Z,22.13
2022-10-11T22:56:24.623Z,22.13
2022-10-11T22:58:51.541Z,22.06
2022-10-11T23:01:18.433Z,22.06
2022-10-11T23:03:45.397Z,22.00
2022-10-11T23:06:12.335Z,22.00
2022-10-11T23:08:39.241Z,21.94
2022-10-11T23:11:06.223Z,21.94
2022-10-11T23:13:33.119Z,21.88
2022-10-11T23:16:00.076Z,21.88
2022-10-11T23:18:27.047Z,21.81
2022-10-11T23:20:53.959Z,21.81
2022-10-11T23:23:20.901Z,21.75
2022-10-11T23:25:47.800Z,21.75
2022-10-11T23:28:14.738Z,21.75
2022-10-11T23:30:41.666Z,21.69
2022-10-11T23:33:08.573Z,21.69
2022-10-11T23:35:35.504Z,21.69
2022-10-11T23:38:02.423Z,21.63
2022-10-11T23:40:29.328Z,21.63
2022-10-11T23:42:56.230Z,21.56
2022-10-11T23:45:23.169Z,21.56
2022-10-11T23:47:50.100Z,21.56
2022-10-11T23:50:17.069Z,21.50
2022-10-11T23:52:43.993Z,21.50
2022-10-11T23:55:10.916Z,21.50
2022-10-11T23:57:38.048Z,21.44
